Time;durP1;ratioP1;P1;durP2;ratioP2;P2;SDS_P1;SDS_P2;PMS_P1;PMS_P2;Temp;Humidity;BMP_temperature;BMP_pressure;BME280_temperature;BME280_humidity;BME280_pressure;Samples;Min_cycle;Max_cycle;Signal;HPM_P1;HPM_P2
2022/03/13 00:00:47;;;;;;;4.05;3.17;;;11.70;99.90;;;;;;5010140;28;20281;-73
2022/03/13 00:03:14;;;;;;;5.05;3.17;;;11.70;99.90;;;;;;5010132;28;20041;-73
2022/03/13 00:05:42;;;;;;;3.97;3.30;;;11.60;99.90;;;;;;5010581;28;20156;-73
2022/03/13 00:08:26;;;;;;;4.32;3.13;;;11.60;99.90;;;;;;5010257;28;20501;-73
2022/03/13 00:11:09;;;;;;;5.93;3.03;;;11.60;99.90;;;;;;5010720;28;20018;-73
2022/03/13 00:13:45;;;;;;;5.05;3.13;;;11.60;99.90;;;;;;5010454;28;20026;-73
2022/03/13 00:16:10;;;;;;;4.85;2.85;;;11.60;99.90;;;;;;5010577;28;20095;-73
2022/03/13 00:18:39;;;;;;;4.55;3.05;;;11.60;99.90;;;;;;5010536;28;20481;-73
2022/03/13 00:21:04;;;;;;;3.70;3.00;;;11.60;99.90;;;;;;4992379;28;20050;-73
2022/03/13 00:23:34;;;;;;;3.38;2.78;;;11.60;99.90;;;;;;4992223;28;20109;-73
2022/03/13 00:26:01;;;;;;;7.95;3.30;;;11.60;99.90;;;;;;5009923;28;20029;-73
2022/03/13 00:28:27;;;;;;;4.38;3.20;;;11.60;99.90;;;;;;5010328;28;20403;-73
2022/03/13 00:30:53;;;;;;;4.05;2.97;;;11.60;99.90;;;;;;5009767;28;20026;-73
2022/03/13 00:33:18;;;;;;;4.15;3.17;;;11.60;99.90;;;;;;5010259;28;20038;-73
2022/03/13 00:35:44;;;;;;;4.78;3.47;;;11.60;99.90;;;;;;5009875;28;20367;-73
2022/03/13 00:38:10;;;;;;;5.30;3.50;;;11.60;99.90;;;;;;5009937;28;20099;-73
2022/03/13 00:40:36;;;;;;;6.53;3.28;;;11.60;99.90;;;;;;5009837;28;20171;-73
2022/03/13 00:43:02;;;;;;;4.43;3.40;;;11.60;99.90;;;;;;4990944;28;20427;-73
2022/03/13 00:45:29;;;;;;;5.70;3.55;;;11.60;99.90;;;;;;4989981;28;20117;-73
2022/03/13 00:47:55;;;;;;;5.20;3.47;;;11.50;99.90;;;;;;4990269;28;20022;-73
2022/03/13 00:50:20;;;;;;;5.90;3.20;;;11.50;99.90;;;;;;4989199;28;20640;-73
2022/03/13 00:52:46;;;;;;;4.20;3.22;;;11.50;99.90;;;;;;4990005;28;20053;-73
2022/03/13 00:55:14;;;;;;;4.18;3.28;;;11.50;99.90;;;;;;4990335;28;20022;-73
2022/03/13 00:57:43;;;;;;;4.53;3.25;;;11.50;99.90;;;;;;4990046;28;20037;-73
2022/03/13 01:00:10;;;;;;;4.03;3.10;;;11.50;99.90;;;;;;4990204;28;20716;-73
2022/03/13 01:02:37;;;;;;;4.53;3.28;;;11.50;99.90;;;;;;4972207;28;20038;-73
2022/03/13 01:05:03;;;;;;;5.47;3.25;;;11.50;99.90;;;;;;4989721;28;20018;-73
2022/03/13 01:07:29;;;;;;;4.68;3.42;;;11.50;99.90;;;;;;4989791;28;20419;-73
2022/03/13 01:09:54;;;;;;;3.85;3.40;;;11.50;99.90;;;;;;4989594;28;20050;-73
2022/03/13 01:12:20;;;;;;;4.47;3.17;;;11.50;99.90;;;;;;4990049;28;20030;-73
2022/03/13 01:14:46;;;;;;;5.20;3.40;;;11.50;99.90;;;;;;4989572;28;20026;-74
2022/03/13 01:17:12;;;;;;;5.03;3.60;;;11.50;99.90;;;;;;4971985;28;20054;-73
2022/03/13 01:19:38;;;;;;;4.22;3.10;;;11.50;99.90;;;;;;4989636;28;20119;-73
2022/03/13 01:22:06;;;;;;;5.22;3.25;;;11.50;99.90;;;;;;4989467;28;20049;-73
2022/03/13 01:24:37;;;;;;;5.32;3.33;;;11.50;99.90;;;;;;4989601;28;20110;-73
2022/03/13 01:27:03;;;;;;;3.88;3.30;;;11.50;99.90;;;;;;4989491;28;20080;-73
2022/03/13 01:29:30;;;;;;;4.07;3.13;;;11.50;99.90;;;;;;4971953;28;20117;-73
2022/03/13 01:31:56;;;;;;;5.10;3.55;;;11.50;99.90;;;;;;4989710;28;20030;-73
2022/03/13 01:34:41;;;;;;;4.53;3.30;;;11.50;99.90;;;;;;4989721;28;20026;-73
2022/03/13 01:37:11;;;;;;;4.63;3.27;;;11.50;99.90;;;;;;4989741;28;20260;-73
2022/03/13 01:39:37;;;;;;;5.55;3.47;;;11.50;99.90;;;;;;4989337;28;20788;-73
2022/03/13 01:42:04;;;;;;;4.55;3.35;;;11.50;99.90;;;;;;5000010;28;20311;-73
2022/03/13 01:44:29;;;;;;;7.45;3.28;;;11.50;99.90;;;;;;5009280;28;20022;-73
2022/03/13 01:46:55;;;;;;;6.85;3.17;;;11.50;99.90;;;;;;4991147;28;20033;-73
2022/03/13 01:49:21;;;;;;;4.93;3.42;;;11.50;99.90;;;;;;4991172;28;20057;-73
2022/03/13 01:51:47;;;;;;;6.50;3.35;;;11.50;99.90;;;;;;5008707;28;20105;-73
2022/03/13 01:54:13;;;;;;;3.97;3.10;;;11.50;99.90;;;;;;5008436;28;20036;-73
2022/03/13 01:56:40;;;;;;;4.80;3.30;;;11.50;99.90;;;;;;5008672;28;20037;-73
2022/03/13 01:59:08;;;;;;;5.05;3.15;;;11.50;99.90;;;;;;5008703;28;20018;-73
2022/03/13 02:01:34;;;;;;;6.35;3.60;;;11.50;99.90;;;;;;5009814;28;20034;-73
2022/03/13 02:04:00;;;;;;;4.65;3.15;;;11.50;99.90;;;;;;5012476;28;20486;-73
2022/03/13 02:06:29;;;;;;;4.35;3.22;;;11.50;99.90;;;;;;5012481;28;20030;-73
2022/03/13 02:08:55;;;;;;;4.22;3.50;;;11.50;99.90;;;;;;4994739;28;20116;-73
2022/03/13 02:11:23;;;;;;;3.60;2.88;;;11.50;99.90;;;;;;4994568;28;20032;-73
2022/03/13 02:13:52;;;;;;;3.88;2.63;;;11.50;99.90;;;;;;5012513;28;20033;-73
2022/03/13 02:16:18;;;;;;;4.20;3.00;;;11.50;99.90;;;;;;5012589;28;20037;-73
2022/03/13 02:18:48;;;;;;;4.13;3.05;;;11.50;99.90;;;;;;5012815;28;20053;-73
2022/03/13 02:21:15;;;;;;;4.25;3.13;;;11.50;99.90;;;;;;5012254;28;20529;-73
2022/03/13 02:23:41;;;;;;;4.15;3.13;;;11.50;99.90;;;;;;5012283;28;20073;-73
2022/03/13 02:26:07;;;;;;;5.63;3.13;;;11.50;99.90;;;;;;5012267;28;20081;-73
2022/03/13 02:28:36;;;;;;;5.55;3.10;;;11.50;99.90;;;;;;5012243;28;20037;-73
2022/03/13 02:31:12;;;;;;;5.00;3.20;;;11.50;99.90;;;;;;5012060;28;20034;-73
2022/03/13 02:33:38;;;;;;;4.10;3.22;;;11.50;99.90;;;;;;5012320;28;20072;-73
2022/03/13 02:36:12;;;;;;;5.10;3.28;;;11.50;99.90;;;;;;5012620;28;20052;-73
2022/03/13 02:38:38;;;;;;;4.63;3.38;;;11.50;99.90;;;;;;5012324;28;20034;-73
2022/03/13 02:41:05;;;;;;;4.55;3.40;;;11.50;99.90;;;;;;5004330;28;20498;-73
2022/03/13 02:43:30;;;;;;;6.25;3.58;;;11.50;99.90;;;;;;5012327;28;20072;-73
2022/03/13 02:45:56;;;;;;;4.20;3.20;;;11.50;99.90;;;;;;5012520;28;20057;-73
2022/03/13 02:48:22;;;;;;;4.30;2.78;;;11.50;99.90;;;;;;5011646;28;20315;-73
2022/03/13 02:50:48;;;;;;;4.30;3.17;;;11.50;99.90;;;;;;5011882;28;20075;-73
2022/03/13 02:53:17;;;;;;;4.40;3.20;;;11.50;99.90;;;;;;5011804;28;20034;-73
2022/03/13 02:55:43;;;;;;;5.93;3.42;;;11.40;99.90;;;;;;5011839;28;20033;-73
2022/03/13 02:58:10;;;;;;;4.60;2.97;;;11.40;99.90;;;;;;5012007;28;20504;-74
2022/03/13 03:00:50;;;;;;;8.35;3.50;;;11.40;99.90;;;;;;5004025;28;20551;-73
2022/03/13 03:03:17;;;;;;;4.50;3.30;;;11.40;99.90;;;;;;4993896;28;20022;-73
2022/03/13 03:05:43;;;;;;;6.20;3.47;;;11.40;99.90;;;;;;4994284;28;20450;-73
2022/03/13 03:08:09;;;;;;;6.10;3.60;;;11.40;99.90;;;;;;5011315;28;20045;-73
2022/03/13 03:10:36;;;;;;;4.95;3.15;;;11.40;99.90;;;;;;4993501;28;20026;-74
2022/03/13 03:13:02;;;;;;;5.70;3.40;;;11.40;99.90;;;;;;5010502;28;20196;-73
2022/03/13 03:15:28;;;;;;;5.45;3.67;;;11.40;99.90;;;;;;5011246;28;20072;-73
2022/03/13 03:17:53;;;;;;;5.70;3.75;;;11.40;99.90;;;;;;5011090;28;20452;-73
2022/03/13 03:20:21;;;;;;;5.32;3.42;;;11.40;99.90;;;;;;5011267;28;20030;-73
2022/03/13 03:22:49;;;;;;;5.03;3.53;;;11.40;99.90;;;;;;5010870;28;20091;-74
2022/03/13 03:25:24;;;;;;;5.50;3.65;;;11.40;99.90;;;;;;4993386;28;20018;-73
2022/03/13 03:27:51;;;;;;;4.68;3.60;;;11.30;99.90;;;;;;4993265;28;20026;-74
2022/03/13 03:30:27;;;;;;;6.13;3.70;;;11.40;99.90;;;;;;5010940;28;20061;-74
2022/03/13 03:32:53;;;;;;;5.85;4.20;;;11.40;99.90;;;;;;5010805;28;20045;-74
2022/03/13 03:35:21;;;;;;;5.63;3.78;;;11.30;99.90;;;;;;5010949;28;20037;-74
2022/03/13 03:37:51;;;;;;;5.43;3.63;;;11.30;99.90;;;;;;5010981;28;20041;-74
2022/03/13 03:40:20;;;;;;;8.32;3.88;;;11.30;99.90;;;;;;5010754;28;20037;-74
2022/03/13 03:42:45;;;;;;;6.75;3.60;;;11.30;99.90;;;;;;5010623;28;20500;-72
2022/03/13 03:45:13;;;;;;;4.57;3.35;;;11.30;99.90;;;;;;5011151;28;20065;-72
2022/03/13 03:47:39;;;;;;;5.20;3.60;;;11.30;99.90;;;;;;5010532;28;20021;-72
2022/03/13 03:50:05;;;;;;;4.90;3.20;;;11.30;99.90;;;;;;5010473;28;20030;-72
2022/03/13 03:52:30;;;;;;;5.13;3.78;;;11.20;99.90;;;;;;5010407;28;20026;-71
2022/03/13 03:54:56;;;;;;;4.28;3.40;;;11.20;99.90;;;;;;5010472;28;20366;-72
2022/03/13 03:57:21;;;;;;;5.03;3.47;;;11.20;99.90;;;;;;5010926;28;20025;-72
2022/03/13 03:59:47;;;;;;;4.85;3.70;;;11.20;99.90;;;;;;5010513;28;20084;-72
2022/03/13 04:02:13;;;;;;;5.63;3.63;;;11.20;99.90;;;;;;5010754;28;20384;-72
2022/03/13 04:04:39;;;;;;;4.72;3.30;;;11.20;99.90;;;;;;5010287;28;20366;-72
2022/03/13 04:07:05;;;;;;;4.45;3.10;;;11.20;99.90;;;;;;5010446;28;20048;-72
2022/03/13 04:09:31;;;;;;;4.13;3.38;;;11.20;99.90;;;;;;4992460;28;20057;-72
2022/03/13 04:11:57;;;;;;;5.25;3.22;;;11.10;99.90;;;;;;5010509;28;20520;-72
2022/03/13 04:14:22;;;;;;;6.07;3.58;;;11.10;99.90;;;;;;5010317;28;20128;-72
2022/03/13 04:16:48;;;;;;;4.88;3.40;;;11.10;99.90;;;;;;5010229;28;20113;-72
2022/03/13 04:19:14;;;;;;;4.20;3.20;;;11.10;99.90;;;;;;5009992;28;20448;-72
2022/03/13 04:21:41;;;;;;;6.38;3.83;;;11.10;99.90;;;;;;5010188;28;20026;-71
2022/03/13 04:24:11;;;;;;;4.35;3.38;;;11.10;99.90;;;;;;5009933;28;20034;-72
2022/03/13 04:26:39;;;;;;;4.38;3.35;;;11.10;99.90;;;;;;5010007;28;20033;-72
2022/03/13 04:29:06;;;;;;;6.20;3.60;;;11.10;99.90;;;;;;5010124;28;20022;-72
2022/03/13 04:31:35;;;;;;;5.15;3.55;;;11.00;99.90;;;;;;5010363;28;20030;-72
2022/03/13 04:34:01;;;;;;;6.13;3.50;;;11.00;99.90;;;;;;5010020;28;20029;-72
2022/03/13 04:36:28;;;;;;;5.57;3.88;;;11.00;99.90;;;;;;5009787;28;20390;-72
2022/03/13 04:38:53;;;;;;;5.45;3.80;;;11.00;99.90;;;;;;5009783;28;20022;-72
2022/03/13 04:41:20;;;;;;;5.95;3.63;;;11.00;99.90;;;;;;4991894;28;20385;-72
2022/03/13 04:43:46;;;;;;;5.68;3.95;;;10.90;99.90;;;;;;5009700;28;20382;-72
2022/03/13 04:46:11;;;;;;;7.10;3.60;;;10.90;99.90;;;;;;5009905;28;20025;-72
2022/03/13 04:48:38;;;;;;;4.97;3.78;;;10.90;99.90;;;;;;5009367;28;20463;-72
2022/03/13 04:51:03;;;;;;;6.13;3.95;;;10.90;99.90;;;;;;5009598;28;20033;-72
2022/03/13 04:53:30;;;;;;;6.85;4.75;;;10.90;99.90;;;;;;5009269;28;20034;-72
2022/03/13 04:55:56;;;;;;;6.13;4.00;;;10.90;99.90;;;;;;5009865;28;20017;-72
2022/03/13 04:58:21;;;;;;;5.38;3.85;;;10.90;99.90;;;;;;5008171;28;20037;-72
2022/03/13 05:00:47;;;;;;;5.85;4.30;;;10.90;99.90;;;;;;5009765;28;20042;-72
2022/03/13 05:03:13;;;;;;;4.97;3.75;;;10.80;99.90;;;;;;5009221;28;20100;-72
2022/03/13 05:05:40;;;;;;;6.05;4.40;;;10.80;99.90;;;;;;5009196;28;20048;-72
2022/03/13 05:08:10;;;;;;;5.85;4.13;;;10.80;99.90;;;;;;5009204;28;20656;-72
2022/03/13 05:10:36;;;;;;;6.38;4.57;;;10.80;99.90;;;;;;5009525;28;20033;-72
2022/03/13 05:13:08;;;;;;;6.30;4.50;;;10.80;99.90;;;;;;4991915;28;20029;-73
2022/03/13 05:15:34;;;;;;;7.47;4.80;;;10.80;99.90;;;;;;5009232;28;20025;-72
2022/03/13 05:18:01;;;;;;;7.45;4.80;;;10.70;99.90;;;;;;5009053;28;20048;-72
2022/03/13 05:20:27;;;;;;;6.70;4.60;;;10.70;99.90;;;;;;5008969;28;20029;-72
2022/03/13 05:22:53;;;;;;;7.25;4.90;;;10.70;99.90;;;;;;5009096;28;20026;-72
2022/03/13 05:25:19;;;;;;;7.60;5.07;;;10.70;99.90;;;;;;5008972;28;20026;-72
2022/03/13 05:27:45;;;;;;;9.02;5.07;;;10.60;99.90;;;;;;5008961;28;20523;-73
2022/03/13 05:30:11;;;;;;;7.15;5.03;;;10.60;99.90;;;;;;5008916;28;20014;-73
2022/03/13 05:32:36;;;;;;;6.95;4.78;;;10.60;99.90;;;;;;5008994;28;20371;-72
2022/03/13 05:35:03;;;;;;;6.78;4.90;;;10.60;99.90;;;;;;5009111;28;20025;-72
2022/03/13 05:37:28;;;;;;;6.82;5.03;;;10.50;99.90;;;;;;5008689;28;20080;-72
2022/03/13 05:39:54;;;;;;;7.45;5.05;;;10.60;99.90;;;;;;5008898;28;20045;-72
2022/03/13 05:42:24;;;;;;;7.10;5.40;;;10.50;99.90;;;;;;5008845;28;20130;-72
2022/03/13 05:44:53;;;;;;;7.55;5.20;;;10.50;99.90;;;;;;5008996;28;20030;-72
2022/03/13 05:47:19;;;;;;;6.93;5.10;;;10.50;99.90;;;;;;5009284;28;20018;-72
2022/03/13 05:49:45;;;;;;;8.13;5.47;;;10.50;99.90;;;;;;5008675;28;20156;-72
2022/03/13 05:52:13;;;;;;;9.82;5.32;;;10.50;99.90;;;;;;5008790;28;20083;-72
2022/03/13 05:54:39;;;;;;;11.07;5.28;;;10.50;99.90;;;;;;5009070;28;20066;-73
2022/03/13 05:57:06;;;;;;;8.45;5.95;;;10.50;99.90;;;;;;5008989;28;20041;-72
2022/03/13 05:59:34;;;;;;;7.80;5.40;;;10.50;99.90;;;;;;5009160;28;20109;-73
2022/03/13 06:02:01;;;;;;;8.02;5.40;;;10.50;99.90;;;;;;4990876;28;20056;-72
2022/03/13 06:04:27;;;;;;;7.28;5.47;;;10.50;99.90;;;;;;5008796;28;20049;-72
2022/03/13 06:06:52;;;;;;;7.78;5.55;;;10.40;99.90;;;;;;4990949;28;20034;-72
2022/03/13 06:09:18;;;;;;;8.38;5.82;;;10.40;99.90;;;;;;5008636;28;20026;-73
2022/03/13 06:11:43;;;;;;;8.85;5.20;;;10.40;99.90;;;;;;5008507;28;20033;-72
2022/03/13 06:14:09;;;;;;;9.63;5.63;;;10.40;99.90;;;;;;5008646;28;20034;-72
2022/03/13 06:16:35;;;;;;;8.95;5.90;;;10.40;99.90;;;;;;5008296;28;20076;-72
2022/03/13 06:19:01;;;;;;;9.88;6.32;;;10.40;99.90;;;;;;5008660;28;20038;-72
2022/03/13 06:21:26;;;;;;;10.73;6.53;;;10.40;99.90;;;;;;5008550;28;20307;-72
2022/03/13 06:23:52;;;;;;;8.98;6.22;;;10.40;99.90;;;;;;5008625;28;20477;-72
2022/03/13 06:26:17;;;;;;;10.00;6.85;;;10.40;99.90;;;;;;5008559;28;20096;-72
2022/03/13 06:28:43;;;;;;;10.63;6.82;;;10.40;99.90;;;;;;5008552;28;20025;-73
2022/03/13 06:31:09;;;;;;;13.25;6.95;;;10.40;99.90;;;;;;5008940;28;20029;-72
2022/03/13 06:33:35;;;;;;;11.88;7.15;;;10.40;99.90;;;;;;5008890;28;20025;-72
2022/03/13 06:36:00;;;;;;;10.60;7.05;;;10.40;99.90;;;;;;5008485;28;20411;-72
2022/03/13 06:38:26;;;;;;;11.23;7.22;;;10.30;99.90;;;;;;5008373;28;20164;-73
2022/03/13 06:40:52;;;;;;;10.45;6.63;;;10.30;99.90;;;;;;4994989;28;20053;-72
2022/03/13 06:43:17;;;;;;;13.63;6.88;;;10.40;99.90;;;;;;4993629;28;20410;-73
2022/03/13 06:45:43;;;;;;;10.80;6.78;;;10.30;99.90;;;;;;4989023;28;20438;-72
2022/03/13 06:48:09;;;;;;;11.82;7.18;;;10.30;99.90;;;;;;4988974;28;20552;-72
2022/03/13 06:50:34;;;;;;;11.55;7.57;;;10.30;99.90;;;;;;4997575;28;20184;-72
2022/03/13 06:53:01;;;;;;;11.68;7.70;;;10.30;99.90;;;;;;5010212;28;20030;-73
2022/03/13 06:55:27;;;;;;;13.45;8.23;;;10.30;99.90;;;;;;5008639;28;20313;-73
2022/03/13 06:57:53;;;;;;;13.68;8.05;;;10.30;99.90;;;;;;5008220;28;20041;-73
2022/03/13 07:00:19;;;;;;;13.93;8.90;;;10.30;99.90;;;;;;5000657;28;20489;-73
2022/03/13 07:02:45;;;;;;;13.50;8.90;;;10.30;99.90;;;;;;5005593;28;20034;-73
2022/03/13 07:05:10;;;;;;;14.77;9.15;;;10.20;99.90;;;;;;5008966;28;20022;-72
2022/03/13 07:07:36;;;;;;;14.23;9.52;;;10.20;99.90;;;;;;5007840;28;20067;-73
2022/03/13 07:10:04;;;;;;;17.38;10.10;;;10.20;99.90;;;;;;5006757;28;20125;-72
2022/03/13 07:12:29;;;;;;;15.48;10.20;;;10.20;99.90;;;;;;5005618;28;20025;-72
2022/03/13 07:14:56;;;;;;;18.52;10.88;;;10.20;99.90;;;;;;4989515;28;20030;-72
2022/03/13 07:17:23;;;;;;;16.35;10.85;;;10.20;99.90;;;;;;5007855;28;20049;-72
2022/03/13 07:19:48;;;;;;;15.52;10.57;;;10.10;99.90;;;;;;5006719;28;20064;-72
2022/03/13 07:22:15;;;;;;;19.63;10.80;;;10.10;99.90;;;;;;5003964;28;20465;-73
2022/03/13 07:24:46;;;;;;;19.08;11.57;;;10.10;99.90;;;;;;5007799;28;20053;-73
2022/03/13 07:27:12;;;;;;;16.80;10.88;;;10.10;99.90;;;;;;5000882;28;20030;-73
2022/03/13 07:29:37;;;;;;;20.38;12.10;;;10.10;99.90;;;;;;5007023;28;20107;-73
2022/03/13 07:32:04;;;;;;;19.10;11.93;;;10.10;99.90;;;;;;5010983;28;20022;-74
2022/03/13 07:34:29;;;;;;;17.70;11.40;;;10.10;99.90;;;;;;5010865;28;20049;-74
2022/03/13 07:36:55;;;;;;;20.00;12.32;;;10.10;99.90;;;;;;5009481;28;20072;-73
2022/03/13 07:39:21;;;;;;;22.25;13.68;;;10.20;99.90;;;;;;5010900;28;20037;-73
2022/03/13 07:41:48;;;;;;;21.20;13.13;;;10.10;99.90;;;;;;5010646;28;20038;-74
2022/03/13 07:44:14;;;;;;;21.48;13.30;;;10.20;99.90;;;;;;5010969;28;20095;-74
2022/03/13 07:46:40;;;;;;;20.38;13.40;;;10.20;99.90;;;;;;5010783;28;20123;-74
2022/03/13 07:49:06;;;;;;;23.02;13.88;;;10.30;99.90;;;;;;5010868;28;20133;-71
2022/03/13 07:51:34;;;;;;;22.98;13.40;;;10.40;99.90;;;;;;5010655;28;20057;-74
2022/03/13 07:54:03;;;;;;;22.20;13.73;;;10.40;99.90;;;;;;5011074;28;20041;-74
2022/03/13 07:56:29;;;;;;;23.23;13.60;;;10.40;99.90;;;;;;5010678;28;20232;-74
2022/03/13 07:58:55;;;;;;;22.15;13.02;;;10.50;99.90;;;;;;5010355;28;20574;-74
2022/03/13 08:01:21;;;;;;;24.23;14.23;;;10.50;99.90;;;;;;4976629;28;20025;-74
2022/03/13 08:03:47;;;;;;;21.63;14.05;;;10.50;99.90;;;;;;5010654;28;20069;-74
2022/03/13 08:06:13;;;;;;;29.02;14.90;;;10.60;99.90;;;;;;4979410;28;20030;-74
2022/03/13 08:08:39;;;;;;;24.05;14.52;;;10.70;99.90;;;;;;4991063;28;20069;-74
2022/03/13 08:11:05;;;;;;;28.10;14.77;;;10.70;99.90;;;;;;4980067;28;20111;-74
2022/03/13 08:13:31;;;;;;;22.85;15.25;;;10.80;99.90;;;;;;4987727;28;21285;-74
2022/03/13 08:15:56;;;;;;;24.17;14.85;;;10.90;99.90;;;;;;5005194;28;20156;-75
2022/03/13 08:18:22;;;;;;;26.13;15.95;;;11.00;99.90;;;;;;4991172;28;20781;-73
2022/03/13 08:20:47;;;;;;;26.40;15.25;;;11.10;99.90;;;;;;5006056;28;20125;-74
2022/03/13 08:23:14;;;;;;;23.38;14.82;;;11.20;99.90;;;;;;5008311;28;20405;-73
2022/03/13 08:25:40;;;;;;;25.15;15.55;;;11.30;99.90;;;;;;5005813;28;20140;-73
2022/03/13 08:28:06;;;;;;;26.40;15.45;;;11.40;99.90;;;;;;5004687;28;20105;-73
2022/03/13 08:30:33;;;;;;;24.92;15.60;;;11.50;99.90;;;;;;5009119;28;20033;-73
2022/03/13 08:32:58;;;;;;;28.75;15.40;;;11.50;99.90;;;;;;5009913;28;20040;-73
2022/03/13 08:35:24;;;;;;;23.95;15.20;;;11.70;99.90;;;;;;5009079;28;20030;-71
2022/03/13 08:37:51;;;;;;;24.75;14.80;;;11.70;99.90;;;;;;5009297;28;20430;-73
2022/03/13 08:40:16;;;;;;;22.63;14.73;;;11.80;99.90;;;;;;5007112;28;20021;-74
2022/03/13 08:42:42;;;;;;;25.05;15.60;;;11.80;99.90;;;;;;5006252;28;20042;-73
2022/03/13 08:45:09;;;;;;;24.63;15.73;;;11.90;99.90;;;;;;4987688;28;20141;-74
2022/03/13 08:47:34;;;;;;;24.58;15.70;;;12.00;99.90;;;;;;5008099;28;20425;-73
2022/03/13 08:50:00;;;;;;;24.63;14.93;;;12.10;99.90;;;;;;5002111;28;20058;-73
2022/03/13 08:52:25;;;;;;;26.05;16.23;;;12.20;99.90;;;;;;5005117;28;20344;-74
2022/03/13 08:54:51;;;;;;;26.58;15.32;;;12.30;99.90;;;;;;4972755;28;20046;-74
2022/03/13 08:57:16;;;;;;;24.23;14.98;;;12.40;99.90;;;;;;5001340;28;20113;-74
2022/03/13 08:59:42;;;;;;;23.80;15.15;;;12.40;99.90;;;;;;5006507;28;20022;-74
2022/03/13 09:02:09;;;;;;;26.73;15.25;;;12.50;99.90;;;;;;5005061;28;20429;-74
2022/03/13 09:04:35;;;;;;;24.63;15.23;;;12.70;99.90;;;;;;5005069;28;20058;-74
2022/03/13 09:07:01;;;;;;;25.55;15.90;;;12.80;99.90;;;;;;5006216;28;20220;-74
2022/03/13 09:09:27;;;;;;;24.08;15.48;;;12.80;99.90;;;;;;5001411;28;20103;-74
2022/03/13 09:11:53;;;;;;;28.30;16.00;;;12.90;99.90;;;;;;4993294;28;20022;-74
2022/03/13 09:14:19;;;;;;;26.05;16.55;;;13.00;99.90;;;;;;4993267;28;20034;-74
2022/03/13 09:16:45;;;;;;;25.90;15.90;;;13.00;99.90;;;;;;4993908;28;20022;-74
2022/03/13 09:19:11;;;;;;;24.85;15.30;;;13.10;99.90;;;;;;5006384;28;20556;-74
2022/03/13 09:21:40;;;;;;;24.58;15.60;;;13.10;99.90;;;;;;5005946;28;20026;-74
2022/03/13 09:24:07;;;;;;;24.10;15.27;;;13.10;99.90;;;;;;5006606;28;20033;-74
2022/03/13 09:26:34;;;;;;;26.75;15.85;;;13.20;99.90;;;;;;5002068;28;20124;-74
2022/03/13 09:29:01;;;;;;;26.55;16.55;;;13.20;99.90;;;;;;5003818;28;20558;-72
2022/03/13 09:31:27;;;;;;;23.00;15.88;;;13.30;99.90;;;;;;4987490;28;20018;-72
2022/03/13 09:33:52;;;;;;;23.23;15.88;;;13.40;99.90;;;;;;4991806;28;20052;-71
2022/03/13 09:36:18;;;;;;;24.40;15.80;;;13.50;99.90;;;;;;5009540;28;20520;-71
2022/03/13 09:38:43;;;;;;;23.15;14.18;;;13.70;99.90;;;;;;4991446;28;20453;-70
2022/03/13 09:41:09;;;;;;;23.38;15.20;;;13.80;99.90;;;;;;5009683;28;20022;-71
2022/03/13 09:43:35;;;;;;;24.90;14.95;;;14.00;99.90;;;;;;5009002;28;20034;-71
2022/03/13 09:46:00;;;;;;;23.23;14.35;;;14.10;99.90;;;;;;5009337;28;20014;-71
2022/03/13 09:48:26;;;;;;;22.02;14.23;;;14.10;99.90;;;;;;5007821;28;20112;-74
2022/03/13 09:50:52;;;;;;;21.02;14.05;;;14.30;99.90;;;;;;4991636;28;20030;-79
2022/03/13 09:53:18;;;;;;;21.63;13.60;;;14.40;99.90;;;;;;4996966;28;20038;-74
2022/03/13 09:55:43;;;;;;;18.17;12.45;;;14.40;99.90;;;;;;5009348;28;20045;-73
2022/03/13 09:58:09;;;;;;;23.45;13.45;;;14.50;99.90;;;;;;5010791;28;20021;-75
2022/03/13 10:00:36;;;;;;;20.00;13.23;;;14.50;99.90;;;;;;5003768;28;20018;-76
2022/03/13 10:03:05;;;;;;;19.17;12.18;;;14.60;99.90;;;;;;5007945;28;20477;-76
2022/03/13 10:05:44;;;;;;;19.10;11.75;;;14.60;99.90;;;;;;5000217;28;20021;-75
2022/03/13 10:08:11;;;;;;;19.80;11.48;;;14.70;99.90;;;;;;5002179;28;20072;-74
2022/03/13 10:10:41;;;;;;;17.73;11.73;;;14.70;99.90;;;;;;5007936;28;20052;-74
2022/03/13 10:13:07;;;;;;;20.67;10.60;;;14.90;99.90;;;;;;5009623;28;20058;-75
2022/03/13 10:15:43;;;;;;;16.90;11.52;;;14.90;99.90;;;;;;5009508;28;20018;-74
2022/03/13 10:18:20;;;;;;;18.52;11.05;;;14.90;99.90;;;;;;5008763;28;20050;-76
2022/03/13 10:20:48;;;;;;;17.95;10.93;;;15.00;99.90;;;;;;5007511;28;20074;-75
2022/03/13 10:23:22;;;;;;;19.55;12.48;;;15.10;99.90;;;;;;5010581;28;20343;-75
2022/03/13 10:25:50;;;;;;;19.50;12.02;;;15.20;99.90;;;;;;5012517;28;20125;-77
2022/03/13 10:28:30;;;;;;;17.95;11.65;;;15.30;99.90;;;;;;5012247;28;20087;-74
2022/03/13 10:30:58;;;;;;;17.00;11.18;;;15.30;99.90;;;;;;4994230;28;20040;-74
2022/03/13 10:33:26;;;;;;;19.35;11.52;;;15.30;99.90;;;;;;5012373;28;20033;-75
2022/03/13 10:36:09;;;;;;;17.20;11.27;;;15.40;99.90;;;;;;5012254;28;20037;-74
2022/03/13 10:38:36;;;;;;;21.40;12.32;;;15.40;99.70;;;;;;5012152;28;20029;-74
2022/03/13 10:41:08;;;;;;;18.45;11.93;;;15.50;99.50;;;;;;4994532;28;20061;-74
2022/03/13 10:43:46;;;;;;;18.02;11.68;;;15.60;99.00;;;;;;5012235;28;20128;-74
2022/03/13 10:46:23;;;;;;;18.33;10.75;;;15.70;98.30;;;;;;4994295;28;20034;-75
2022/03/13 10:48:49;;;;;;;16.90;10.82;;;15.70;97.70;;;;;;5011920;28;20033;-76
2022/03/13 10:51:15;;;;;;;14.85;10.02;;;15.80;97.30;;;;;;5011865;28;20037;-77
2022/03/13 10:53:41;;;;;;;16.85;10.93;;;15.80;97.20;;;;;;5011669;28;20026;-76
2022/03/13 10:56:12;;;;;;;16.27;11.27;;;15.90;96.40;;;;;;5011814;28;20026;-75
2022/03/13 10:58:44;;;;;;;17.10;12.15;;;16.00;96.20;;;;;;5011843;28;20394;-78
2022/03/13 11:01:11;;;;;;;17.90;11.85;;;16.10;95.90;;;;;;5011114;28;20486;-75
2022/03/13 11:04:02;;;;;;;14.77;10.40;;;16.10;95.40;;;;;;4995622;28;20091;-75
2022/03/13 11:06:28;;;;;;;15.48;10.35;;;16.20;94.40;;;;;;4995676;28;20151;-76
2022/03/13 11:08:55;;;;;;;14.57;9.73;;;16.30;94.40;;;;;;4999129;28;20109;-74
2022/03/13 11:11:27;;;;;;;13.65;9.40;;;16.40;94.20;;;;;;4988456;28;20022;-74
2022/03/13 11:13:57;;;;;;;13.00;9.30;;;16.50;93.70;;;;;;5011226;28;20176;-75
2022/03/13 11:16:31;;;;;;;12.32;8.60;;;16.60;92.70;;;;;;4977626;28;20026;-75
2022/03/13 11:19:06;;;;;;;14.27;8.80;;;16.60;91.90;;;;;;5010500;28;20065;-74
2022/03/13 11:21:32;;;;;;;10.73;7.93;;;16.60;91.30;;;;;;5009299;28;20022;-73
2022/03/13 11:24:00;;;;;;;12.48;8.00;;;16.60;90.80;;;;;;5011510;28;20049;-73
2022/03/13 11:26:30;;;;;;;13.32;9.07;;;16.60;90.60;;;;;;5011843;28;20369;-77
2022/03/13 11:28:57;;;;;;;11.85;8.10;;;16.60;90.20;;;;;;5016333;28;20462;-74
2022/03/13 11:31:37;;;;;;;12.02;7.60;;;16.70;89.70;;;;;;5013793;28;20029;-73
2022/03/13 11:34:12;;;;;;;10.98;7.68;;;16.70;87.70;;;;;;5010400;28;20077;-72
2022/03/13 11:36:39;;;;;;;11.13;7.95;;;16.70;87.20;;;;;;4992279;28;20038;-74
2022/03/13 11:39:07;;;;;;;13.88;8.20;;;16.80;86.90;;;;;;5012815;28;20496;-74
2022/03/13 11:41:43;;;;;;;10.98;7.97;;;16.90;86.80;;;;;;5013634;28;20485;-74
2022/03/13 11:44:18;;;;;;;12.70;8.07;;;17.00;85.80;;;;;;5014250;28;20037;-72
2022/03/13 11:46:46;;;;;;;11.27;7.95;;;17.00;85.30;;;;;;5012028;28;20030;-72
2022/03/13 11:49:34;;;;;;;10.95;7.68;;;17.00;85.00;;;;;;5000838;28;20038;-74
2022/03/13 11:52:17;;;;;;;12.27;8.02;;;17.10;83.70;;;;;;5009048;28;20458;-74
2022/03/13 11:54:49;;;;;;;11.32;8.02;;;17.10;83.20;;;;;;5003025;28;20026;-72
2022/03/13 11:57:17;;;;;;;12.90;8.20;;;17.10;83.40;;;;;;5000080;28;20430;-72
2022/03/13 11:59:48;;;;;;;12.95;8.68;;;17.10;83.40;;;;;;5005450;28;20101;-73
2022/03/13 12:02:42;;;;;;;10.60;7.55;;;17.20;82.90;;;;;;5009728;28;20026;-75
2022/03/13 12:05:26;;;;;;;12.73;8.05;;;17.20;81.90;;;;;;5017361;28;20026;-75
2022/03/13 12:07:57;;;;;;;11.05;7.80;;;17.20;82.20;;;;;;5027217;28;20018;-76
2022/03/13 12:10:30;;;;;;;10.88;7.43;;;17.30;81.60;;;;;;5024081;28;20022;-73
2022/03/13 12:13:06;;;;;;;12.95;7.93;;;17.30;80.60;;;;;;4986743;28;20061;-73
2022/03/13 12:15:33;;;;;;;11.23;7.35;;;17.20;79.30;;;;;;5011784;28;20386;-72
2022/03/13 12:17:58;;;;;;;11.20;7.28;;;17.20;78.40;;;;;;4995614;28;20090;-73
2022/03/13 12:20:26;;;;;;;11.27;7.32;;;17.20;79.10;;;;;;4992979;28;20494;-73
2022/03/13 12:22:56;;;;;;;12.57;7.55;;;17.20;78.10;;;;;;4992417;28;20110;-74
2022/03/13 12:25:30;;;;;;;10.55;7.00;;;17.20;78.20;;;;;;5004404;28;20026;-79
2022/03/13 12:27:57;;;;;;;10.15;6.53;;;17.30;77.90;;;;;;5000418;28;20033;-78
2022/03/13 12:30:25;;;;;;;14.18;7.32;;;17.40;77.90;;;;;;5003204;28;20021;-76
2022/03/13 12:33:00;;;;;;;21.88;7.05;;;17.60;77.50;;;;;;4995285;28;20029;-74
2022/03/13 12:35:28;;;;;;;14.85;6.90;;;17.70;75.20;;;;;;4988248;28;20038;-73
2022/03/13 12:37:55;;;;;;;9.73;6.57;;;17.70;74.80;;;;;;4992949;28;20022;-74
2022/03/13 12:40:23;;;;;;;9.07;6.82;;;17.70;74.30;;;;;;5011424;28;20029;-73